createdAt,value
2023-04-16T00:00:52.594Z,101978.25
2023-04-16T00:02:54.204Z,101986.16
2023-04-16T00:04:55.990Z,101987.91
2023-04-16T00:06:57.518Z,101986.19
2023-04-16T00:08:59.032Z,101985.31
2023-04-16T00:11:00.478Z,101989.72
2023-04-16T00:13:01.981Z,101994.13
2023-04-16T00:15:03.759Z,101984.47
2023-04-16T00:17:05.335Z,101991.53
2023-04-16T00:19:06.930Z,101995.03
2023-04-16T00:21:08.589Z,101997.66
2023-04-16T00:23:10.120Z,102002.94
2023-04-16T00:25:11.637Z,101997.69
2023-04-16T00:27:13.124Z,102002.06
2023-04-16T00:29:14.601Z,101998.56
2023-04-16T00:31:16.150Z,101995.94
2023-04-16T00:33:17.862Z,101997.69
2023-04-16T00:35:19.462Z,101995.94
2023-04-16T00:37:21.084Z,101989.78
2023-04-16T00:39:22.641Z,101990.66
2023-04-16T00:41:24.193Z,101997.69
2023-04-16T00:43:26.893Z,101999.44
2023-04-16T00:45:28.380Z,101995.94
2023-04-16T00:47:31.108Z,102000.34
2023-04-16T00:49:32.636Z,102002.09
2023-04-16T00:51:35.699Z,101995.97
2023-04-16T00:53:37.995Z,102001.22
2023-04-16T00:55:39.866Z,102003.00
2023-04-16T00:57:41.333Z,102010.03
2023-04-16T00:59:42.782Z,102003.88
2023-04-16T01:01:44.257Z,102010.91
2023-04-16T01:03:48.203Z,102010.03
2023-04-16T01:05:50.578Z,102010.03
2023-04-16T01:07:52.176Z,102013.56
2023-04-16T01:09:53.693Z,102017.09
2023-04-16T01:11:55.191Z,102018.84
2023-04-16T01:13:56.650Z,102013.59
2023-04-16T01:15:58.187Z,102023.25
2023-04-16T01:17:59.788Z,102024.13
2023-04-16T01:20:01.513Z,102011.84
2023-04-16T01:22:03.950Z,102017.97
2023-04-16T01:24:05.680Z,102026.75
2023-04-16T01:26:07.189Z,102025.00
2023-04-16T01:28:08.659Z,102023.25
2023-04-16T01:30:10.582Z,102025.88
2023-04-16T01:32:12.033Z,102036.41
2023-04-16T01:34:13.531Z,102036.41
2023-04-16T01:36:15.354Z,102030.28
2023-04-16T01:38:17.218Z,102039.94
2023-04-16T01:40:19.283Z,102038.19
2023-04-16T01:42:20.744Z,102045.19
2023-04-16T01:44:23.141Z,102045.19
2023-04-16T01:46:29.057Z,102046.06
2023-04-16T01:48:30.641Z,102045.16
2023-04-16T01:50:32.232Z,102042.53
2023-04-16T01:52:33.692Z,102039.91
2023-04-16T01:54:35.155Z,102043.41
2023-04-16T01:56:36.614Z,102037.28
2023-04-16T01:58:38.585Z,102038.16
2023-04-16T02:00:40.146Z,102046.06
2023-04-16T02:02:41.855Z,102039.91
2023-04-16T02:04:45.590Z,102033.78
2023-04-16T02:06:47.120Z,102039.91
2023-04-16T02:08:48.641Z,102041.66
2023-04-16T02:10:50.596Z,102044.31
2023-04-16T02:12:52.114Z,102038.16
2023-04-16T02:14:53.685Z,102042.56
2023-04-16T02:16:55.276Z,102047.81
2023-04-16T02:18:56.842Z,102039.91
2023-04-16T02:21:00.171Z,102047.81
2023-04-16T02:23:01.752Z,102050.44
2023-04-16T02:25:03.592Z,102051.31
2023-04-16T02:27:05.116Z,102052.19
2023-04-16T02:29:07.033Z,102056.59
2023-04-16T02:31:08.568Z,102054.84
2023-04-16T02:33:11.509Z,102057.47
2023-04-16T02:35:13.015Z,102060.97
2023-04-16T02:37:15.384Z,102056.59
2023-04-16T02:39:16.877Z,102060.97
2023-04-16T02:41:18.431Z,102063.63
2023-04-16T02:43:19.916Z,102055.72
2023-04-16T02:45:21.738Z,102063.63
2023-04-16T02:47:23.251Z,102065.38
2023-04-16T02:49:24.820Z,102067.13
2023-04-16T02:51:26.446Z,102068.88
2023-04-16T02:53:27.946Z,102067.13
2023-04-16T02:55:30.517Z,102068.88
2023-04-16T02:57:32.837Z,102065.38
2023-04-16T02:59:34.293Z,102069.75
2023-04-16T03:01:35.886Z,102068.88
2023-04-16T03:03:37.417Z,102068.00
2023-04-16T03:05:40.308Z,102079.41
2023-04-16T03:07:41.987Z,102076.78
2023-04-16T03:09:43.474Z,102086.41
2023-04-16T03:11:44.973Z,102082.03
2023-04-16T03:13:46.639Z,102078.53
2023-04-16T03:15:49.888Z,102082.03
2023-04-16T03:17:51.514Z,102082.03
2023-04-16T03:19:52.984Z,102085.53
2023-04-16T03:21:54.470Z,102086.41
2023-04-16T03:23:56.098Z,102089.06
2023-04-16T03:25:57.796Z,102092.56
2023-04-16T03:27:59.233Z,102089.94
2023-04-16T03:30:01.098Z,102091.69
2023-04-16T03:32:02.611Z,102079.41
2023-04-16T03:34:04.054Z,102078.53
2023-04-16T03:36:05.993Z,102089.94
2023-04-16T03:38:07.439Z,102092.56
2023-04-16T03:40:09.100Z,102096.94
2023-04-16T03:42:10.569Z,102095.19
2023-04-16T03:44:12.037Z,102103.09
2023-04-16T03:46:13.506Z,102096.91
2023-04-16T03:48:15.877Z,102099.53
2023-04-16T03:50:17.417Z,102106.56
2023-04-16T03:52:18.886Z,102104.81
2023-04-16T03:54:22.562Z,102096.03
2023-04-16T03:56:24.577Z,102100.41
2023-04-16T03:58:26.114Z,102100.41
2023-04-16T04:00:27.618Z,102102.16
2023-04-16T04:02:29.358Z,102105.69
2023-04-16T04:04:31.070Z,102093.41
2023-04-16T04:06:32.672Z,102100.41
2023-04-16T04:08:34.158Z,102093.41
2023-04-16T04:10:36.128Z,102098.66
2023-04-16T04:12:37.594Z,102105.69
2023-04-16T04:14:40.106Z,102095.16
2023-04-16T04:16:41.756Z,102105.69
2023-04-16T04:18:44.462Z,102099.53
2023-04-16T04:20:46.137Z,102105.69
2023-04-16T04:22:47.787Z,102101.28
2023-04-16T04:24:49.251Z,102110.06
2023-04-16T04:26:50.713Z,102115.31
2023-04-16T04:28:52.175Z,102108.31
2023-04-16T04:30:53.637Z,102117.06
2023-04-16T04:32:55.146Z,102118.81
2023-04-16T04:34:57.047Z,102119.69
2023-04-16T04:36:59.348Z,102119.69
2023-04-16T04:39:00.970Z,102117.91
2023-04-16T04:41:02.418Z,102121.41
2023-04-16T04:43:03.910Z,102119.66
2023-04-16T04:45:06.195Z,102119.66
2023-04-16T04:47:07.680Z,102125.81
2023-04-16T04:49:09.367Z,102133.69
2023-04-16T04:51:10.971Z,102133.69
2023-04-16T04:53:14.737Z,102144.25
2023-04-16T04:55:16.369Z,102135.50
2023-04-16T04:57:17.845Z,102146.00
2023-04-16T04:59:21.400Z,102141.63
2023-04-16T05:01:22.880Z,102155.66
2023-04-16T05:03:24.439Z,102150.41
2023-04-16T05:05:26.007Z,102156.53
2023-04-16T05:07:27.497Z,102153.91
2023-04-16T05:09:28.967Z,102160.94
2023-04-16T05:11:30.482Z,102166.19
2023-04-16T05:13:31.999Z,102160.06
2023-04-16T05:15:33.471Z,102167.06
2023-04-16T05:17:34.936Z,102158.34
2023-04-16T05:19:36.793Z,102160.97
2023-04-16T05:21:38.287Z,102161.84
2023-04-16T05:23:39.723Z,102161.84
2023-04-16T05:25:41.225Z,102155.72
2023-04-16T05:27:42.993Z,102165.38
2023-04-16T05:29:44.478Z,102160.09
2023-04-16T05:31:46.273Z,102168.00
2023-04-16T05:33:47.745Z,102169.75
2023-04-16T05:35:49.289Z,102171.53
2023-04-16T05:37:50.749Z,102168.88
2023-04-16T05:39:52.241Z,102181.19
2023-04-16T05:41:53.728Z,102175.03
2023-04-16T05:43:55.261Z,102178.56
2023-04-16T05:45:56.875Z,102182.94
2023-04-16T05:47:58.422Z,102187.34
2023-04-16T05:49:59.884Z,102182.94
2023-04-16T05:52:01.700Z,102187.38
2023-04-16T05:54:03.287Z,102190.88
2023-04-16T05:56:05.009Z,102180.34
2023-04-16T05:58:06.518Z,102190.00
2023-04-16T06:00:08.509Z,102190.88
2023-04-16T06:02:10.084Z,102194.38
2023-04-16T06:04:11.668Z,102193.50
2023-04-16T06:06:13.394Z,102193.50
2023-04-16T06:08:14.845Z,102194.41
2023-04-16T06:10:16.457Z,102204.94
2023-04-16T06:12:18.042Z,102202.28
2023-04-16T06:14:19.681Z,102203.16
2023-04-16T06:16:21.213Z,102207.56
2023-04-16T06:18:22.698Z,102201.41
2023-04-16T06:20:24.846Z,102206.69
2023-04-16T06:22:26.562Z,102208.44
2023-04-16T06:24:28.124Z,102211.06
2023-04-16T06:26:29.588Z,102211.97
2023-04-16T06:28:31.076Z,102211.97
2023-04-16T06:30:32.637Z,102214.59
2023-04-16T06:32:34.254Z,102216.34
2023-04-16T06:34:35.975Z,102217.22
2023-04-16T06:36:37.737Z,102218.97
2023-04-16T06:38:39.265Z,102226.00
2023-04-16T06:40:40.956Z,102226.00
2023-04-16T06:42:45.313Z,102227.75
2023-04-16T06:44:47.757Z,102224.25
2023-04-16T06:46:50.888Z,102225.13
2023-04-16T06:48:52.382Z,102226.00
2023-04-16T06:50:54.952Z,102231.28
2023-04-16T06:52:56.826Z,102227.75
2023-04-16T06:54:58.628Z,102233.03
2023-04-16T06:57:00.130Z,102231.28
2023-04-16T06:59:01.582Z,102232.16
2023-04-16T07:01:03.197Z,102234.78
2023-04-16T07:03:04.889Z,102236.53
2023-04-16T07:05:06.732Z,102231.28
2023-04-16T07:07:08.741Z,102239.22
2023-04-16T07:09:10.433Z,102238.34
2023-04-16T07:11:12.154Z,102235.69
2023-04-16T07:13:14.108Z,102245.34
2023-04-16T07:15:15.700Z,102245.34
2023-04-16T07:17:17.130Z,102245.34
2023-04-16T07:19:18.572Z,102247.09
2023-04-16T07:21:21.000Z,102243.59
2023-04-16T07:23:22.440Z,102244.47
2023-04-16T07:25:23.927Z,102246.22
2023-04-16T07:27:25.480Z,102243.59
2023-04-16T07:29:26.943Z,102251.50
2023-04-16T07:31:28.512Z,102251.50
2023-04-16T07:33:30.089Z,102253.25
2023-04-16T07:35:31.815Z,102256.75
2023-04-16T07:37:33.273Z,102255.00
2023-04-16T07:39:34.788Z,102262.00
2023-04-16T07:41:36.340Z,102255.00
2023-04-16T07:43:37.778Z,102268.19
2023-04-16T07:45:40.914Z,102269.06
2023-04-16T07:47:42.903Z,102266.44
2023-04-16T07:49:44.368Z,102271.69
2023-04-16T07:51:45.871Z,102274.34
2023-04-16T07:53:47.345Z,102269.94
2023-04-16T07:55:48.849Z,102269.03
2023-04-16T07:57:50.382Z,102274.31
2023-04-16T07:59:51.900Z,102278.69
2023-04-16T08:01:54.202Z,102278.69
2023-04-16T08:03:56.000Z,102274.28
2023-04-16T08:05:58.700Z,102276.03
2023-04-16T08:08:00.266Z,102273.41
2023-04-16T08:10:02.583Z,102286.56
2023-04-16T08:12:04.486Z,102283.06
2023-04-16T08:14:05.961Z,102281.28
2023-04-16T08:16:07.764Z,102283.88
2023-04-16T08:18:12.926Z,102294.44
2023-04-16T08:20:17.632Z,102292.69
2023-04-16T08:22:20.835Z,102290.03
2023-04-16T08:24:22.547Z,102292.69
2023-04-16T08:26:24.038Z,102291.81
2023-04-16T08:28:25.647Z,102292.69
2023-04-16T08:30:27.421Z,102293.56
2023-04-16T08:32:28.941Z,102294.44
2023-04-16T08:34:30.440Z,102296.19
2023-04-16T08:36:32.048Z,102298.84
2023-04-16T08:38:33.500Z,102302.38
2023-04-16T08:40:39.062Z,102313.78
2023-04-16T08:42:45.910Z,102304.97
2023-04-16T08:44:49.864Z,102310.22
2023-04-16T08:46:57.295Z,102308.47
2023-04-16T08:49:00.332Z,102305.84
2023-04-16T08:51:02.395Z,102314.63
2023-04-16T08:53:06.545Z,102315.50
2023-04-16T08:55:12.578Z,102316.38
2023-04-16T08:57:19.052Z,102320.78
2023-04-16T08:59:21.481Z,102326.91
2023-04-16T09:01:25.383Z,102327.78
2023-04-16T09:03:28.810Z,102320.72
2023-04-16T09:05:31.611Z,102325.13
2023-04-16T09:07:34.726Z,102326.84
2023-04-16T09:09:39.138Z,102325.03
2023-04-16T09:11:41.472Z,102317.97
2023-04-16T09:13:43.238Z,102325.81
2023-04-16T09:15:44.892Z,102329.28
2023-04-16T09:17:46.499Z,102322.19
2023-04-16T09:19:48.354Z,102326.50
2023-04-16T09:21:49.976Z,102329.97
2023-04-16T09:23:53.467Z,102319.41
2023-04-16T09:25:56.569Z,102324.63
2023-04-16T09:27:58.146Z,102327.25
2023-04-16T09:29:59.716Z,102328.91
2023-04-16T09:32:05.849Z,102328.84
2023-04-16T09:34:09.120Z,102331.47
2023-04-16T09:36:11.048Z,102334.09
2023-04-16T09:38:12.528Z,102336.72
2023-04-16T09:40:24.000Z,102334.97
2023-04-16T09:42:27.423Z,102337.63
2023-04-16T09:44:38.887Z,102339.41
2023-04-16T09:46:43.549Z,102340.22
2023-04-16T09:48:45.765Z,102346.41
2023-04-16T09:50:51.274Z,102345.53
2023-04-16T09:52:52.746Z,102349.03
2023-04-16T09:54:54.630Z,102350.75
2023-04-16T09:56:57.056Z,102353.41
2023-04-16T09:59:00.578Z,102353.31
2023-04-16T10:01:03.377Z,102353.19
2023-04-16T10:03:06.064Z,102352.25
2023-04-16T10:05:07.886Z,102346.88
2023-04-16T10:07:09.351Z,102355.63
2023-04-16T10:09:11.142Z,102351.16
2023-04-16T10:11:13.512Z,102356.41
2023-04-16T10:13:17.638Z,102362.50
2023-04-16T10:15:19.231Z,102360.66
2023-04-16T10:17:21.477Z,102358.81
2023-04-16T10:19:23.581Z,102364.16
2023-04-16T10:21:33.596Z,102365.06
2023-04-16T10:23:35.546Z,102359.75
2023-04-16T10:25:38.717Z,102368.66
2023-04-16T10:27:41.213Z,102369.53
2023-04-16T10:29:44.591Z,102365.09
2023-04-16T10:31:47.643Z,102360.59
2023-04-16T10:33:49.900Z,102369.44
2023-04-16T10:36:01.393Z,102372.06
2023-04-16T10:38:28.275Z,102370.19
2023-04-16T10:40:29.804Z,102363.94
2023-04-16T10:42:31.447Z,102374.50
2023-04-16T10:44:33.525Z,102368.38
2023-04-16T10:46:39.226Z,102370.00
2023-04-16T10:48:49.595Z,102369.84
2023-04-16T10:50:57.489Z,102363.47
2023-04-16T10:53:23.454Z,102359.88
2023-04-16T10:55:24.959Z,102359.78
2023-04-16T10:57:29.662Z,102357.91
2023-04-16T10:59:33.648Z,102366.56
2023-04-16T11:01:37.489Z,102358.44
2023-04-16T11:03:48.582Z,102351.97
2023-04-16T11:05:50.523Z,102357.13
2023-04-16T11:07:52.001Z,102357.03
2023-04-16T11:10:13.714Z,102365.84
2023-04-16T11:12:21.056Z,102361.38
2023-04-16T11:14:22.562Z,102362.19
2023-04-16T11:16:24.885Z,102363.09
2023-04-16T11:18:26.519Z,102353.41
2023-04-16T11:20:28.624Z,102356.06
2023-04-16T11:22:30.762Z,102353.16
2023-04-16T11:24:33.031Z,102363.47
2023-04-16T11:26:34.522Z,102357.25
2023-04-16T11:28:36.779Z,102356.44
2023-04-16T11:30:39.470Z,102356.56
2023-04-16T11:32:41.244Z,102357.38
2023-04-16T11:34:46.015Z,102355.47
2023-04-16T11:36:49.754Z,102356.97
2023-04-16T11:38:51.478Z,102358.53
2023-04-16T11:40:54.118Z,102361.09
2023-04-16T11:42:55.705Z,102361.03
2023-04-16T11:45:00.675Z,102360.00
2023-04-16T11:47:07.339Z,102346.78
2023-04-16T11:49:09.496Z,102360.81
2023-04-16T11:51:11.481Z,102363.41
2023-04-16T11:53:12.983Z,102362.34
2023-04-16T11:55:14.569Z,102358.75
2023-04-16T11:57:24.414Z,102361.38
2023-04-16T11:59:27.165Z,102369.34
2023-04-16T12:01:28.713Z,102361.22
2023-04-16T12:03:44.240Z,102351.34
2023-04-16T12:05:46.044Z,102355.69
2023-04-16T12:07:47.521Z,102360.22
2023-04-16T12:09:49.016Z,102369.03
2023-04-16T12:11:50.790Z,102369.75
2023-04-16T12:14:08.660Z,102371.59
2023-04-16T12:16:19.841Z,102370.66
2023-04-16T12:18:29.134Z,102363.63
2023-04-16T12:20:40.056Z,102370.75
2023-04-16T12:22:50.727Z,102373.47
2023-04-16T12:24:56.987Z,102375.28
2023-04-16T12:27:03.153Z,102376.16
2023-04-16T12:29:16.974Z,102370.63
2023-04-16T12:31:20.382Z,102375.00
2023-04-16T12:33:21.924Z,102371.47
2023-04-16T12:35:34.005Z,102371.44
2023-04-16T12:37:35.829Z,102379.38
2023-04-16T12:39:37.313Z,102377.59
2023-04-16T12:41:40.688Z,102373.31
2023-04-16T12:43:42.205Z,102369.84
2023-04-16T12:45:43.713Z,102369.97
2023-04-16T12:47:45.528Z,102381.63
2023-04-16T12:49:47.030Z,102379.97
2023-04-16T12:51:49.127Z,102378.28
2023-04-16T12:53:50.685Z,102379.25
2023-04-16T12:55:52.238Z,102381.09
2023-04-16T12:57:54.435Z,102376.75
2023-04-16T12:59:57.168Z,102376.78
2023-04-16T13:02:00.484Z,102372.41
2023-04-16T13:04:02.175Z,102375.09
2023-04-16T13:06:04.365Z,102383.19
2023-04-16T13:08:06.013Z,102387.75
2023-04-16T13:10:08.147Z,102377.13
2023-04-16T13:12:09.611Z,102383.44
2023-04-16T13:14:11.097Z,102383.53
2023-04-16T13:16:12.713Z,102380.88
2023-04-16T13:18:14.251Z,102380.06
2023-04-16T13:20:15.767Z,102380.09
2023-04-16T13:22:17.302Z,102380.06
2023-04-16T13:24:21.611Z,102381.84
2023-04-16T13:26:23.080Z,102394.28
2023-04-16T13:28:24.537Z,102384.59
2023-04-16T13:30:26.112Z,102383.72
2023-04-16T13:32:27.617Z,102386.41
2023-04-16T13:34:29.223Z,102388.22
2023-04-16T13:36:32.215Z,102389.97
2023-04-16T13:38:33.750Z,102386.38
2023-04-16T13:40:35.286Z,102382.78
2023-04-16T13:42:36.744Z,102380.97
2023-04-16T13:44:38.236Z,102385.31
2023-04-16T13:46:39.850Z,102387.00
2023-04-16T13:48:41.408Z,102384.28
2023-04-16T13:50:42.902Z,102382.50
2023-04-16T13:52:44.388Z,102384.28
2023-04-16T13:54:45.934Z,102382.53
2023-04-16T13:56:47.474Z,102380.75
2023-04-16T13:58:49.311Z,102380.75
2023-04-16T14:00:51.080Z,102388.66
2023-04-16T14:02:53.266Z,102390.44
2023-04-16T14:04:54.845Z,102389.53
2023-04-16T14:06:56.348Z,102378.94
2023-04-16T14:08:57.820Z,102381.59
2023-04-16T14:10:59.324Z,102384.25
2023-04-16T14:13:00.944Z,102378.06
2023-04-16T14:15:04.406Z,102377.16
2023-04-16T14:17:07.507Z,102375.44
2023-04-16T14:19:09.722Z,102379.91
2023-04-16T14:21:11.606Z,102379.94
2023-04-16T14:23:13.116Z,102379.88
2023-04-16T14:25:14.615Z,102380.72
2023-04-16T14:27:16.995Z,102376.19
2023-04-16T14:29:18.503Z,102385.88
2023-04-16T14:31:20.604Z,102386.78
2023-04-16T14:33:22.192Z,102381.47
2023-04-16T14:35:23.806Z,102379.72
2023-04-16T14:37:26.270Z,102380.59
2023-04-16T14:39:27.820Z,102378.81
2023-04-16T14:41:30.397Z,102381.50
2023-04-16T14:43:31.874Z,102377.00
2023-04-16T14:45:33.485Z,102381.38
2023-04-16T14:47:36.828Z,102374.47
2023-04-16T14:49:38.353Z,102382.50
2023-04-16T14:51:40.490Z,102385.25
2023-04-16T14:53:42.061Z,102379.16
2023-04-16T14:55:44.102Z,102381.13
2023-04-16T14:57:45.564Z,102381.97
2023-04-16T14:59:48.324Z,102378.41
2023-04-16T15:01:51.009Z,102380.22
2023-04-16T15:03:52.836Z,102385.66
2023-04-16T15:05:57.278Z,102386.63
2023-04-16T15:07:58.798Z,102383.13
2023-04-16T15:10:00.325Z,102388.50
2023-04-16T15:12:01.846Z,102385.97
2023-04-16T15:14:03.321Z,102387.88
2023-04-16T15:16:05.309Z,102390.59
2023-04-16T15:18:06.900Z,102393.34
2023-04-16T15:20:09.059Z,102381.00
2023-04-16T15:22:10.499Z,102390.72
2023-04-16T15:24:12.278Z,102390.81
2023-04-16T15:26:13.848Z,102392.66
2023-04-16T15:28:15.897Z,102398.03
2023-04-16T15:30:17.621Z,102390.13
2023-04-16T15:32:19.151Z,102395.53
2023-04-16T15:34:20.674Z,102397.41
2023-04-16T15:36:22.659Z,102400.06
2023-04-16T15:38:24.118Z,102402.75
2023-04-16T15:40:25.650Z,102398.34
2023-04-16T15:42:27.100Z,102400.13
2023-04-16T15:44:30.365Z,102396.63
2023-04-16T15:46:32.069Z,102400.22
2023-04-16T15:48:33.593Z,102408.19
2023-04-16T15:50:35.229Z,102398.47
2023-04-16T15:52:38.630Z,102404.66
2023-04-16T15:54:40.831Z,102402.91
2023-04-16T15:56:42.335Z,102403.78
2023-04-16T15:58:43.892Z,102405.53
2023-04-16T16:00:49.665Z,102402.91
2023-04-16T16:02:51.474Z,102398.50
2023-04-16T16:04:53.052Z,102405.56
2023-04-16T16:06:54.695Z,102405.56
2023-04-16T16:08:56.715Z,102412.63
2023-04-16T16:10:58.189Z,102416.25
2023-04-16T16:13:05.167Z,102409.19
2023-04-16T16:15:07.250Z,102413.66
2023-04-16T16:17:08.720Z,102411.03
2023-04-16T16:19:10.723Z,102411.03
2023-04-16T16:21:12.259Z,102412.81
2023-04-16T16:23:13.819Z,102417.25
2023-04-16T16:25:15.312Z,102417.19
2023-04-16T16:27:17.850Z,102411.00
2023-04-16T16:29:19.327Z,102416.25
2023-04-16T16:31:20.980Z,102422.44
2023-04-16T16:33:22.631Z,102416.25
2023-04-16T16:35:26.010Z,102418.06
2023-04-16T16:37:29.160Z,102419.84
2023-04-16T16:39:31.810Z,102411.91
2023-04-16T16:41:37.583Z,102420.75
2023-04-16T16:43:39.066Z,102426.06
2023-04-16T16:45:40.753Z,102429.59
2023-04-16T16:47:42.322Z,102420.75
2023-04-16T16:49:44.660Z,102424.31
2023-04-16T16:51:47.395Z,102431.41
2023-04-16T16:53:48.860Z,102432.31
2023-04-16T16:55:50.306Z,102428.78
2023-04-16T16:57:51.963Z,102437.63
2023-04-16T16:59:54.510Z,102433.22
2023-04-16T17:01:56.310Z,102433.28
2023-04-16T17:03:57.923Z,102435.13
2023-04-16T17:05:59.612Z,102441.34
2023-04-16T17:08:01.261Z,102440.47
2023-04-16T17:10:05.273Z,102438.69
2023-04-16T17:12:08.144Z,102436.94
2023-04-16T17:14:09.608Z,102440.53
2023-04-16T17:16:11.886Z,102441.47
2023-04-16T17:18:13.561Z,102446.78
2023-04-16T17:20:15.638Z,102447.72
2023-04-16T17:22:17.414Z,102441.59
2023-04-16T17:24:18.935Z,102449.56
2023-04-16T17:26:20.471Z,102454.03
2023-04-16T17:28:22.026Z,102447.88
2023-04-16T17:30:25.834Z,102459.34
2023-04-16T17:32:28.220Z,102455.00
2023-04-16T17:34:29.786Z,102465.63
2023-04-16T17:36:31.365Z,102461.25
2023-04-16T17:38:33.778Z,102466.59
2023-04-16T17:40:35.326Z,102467.47
2023-04-16T17:42:37.043Z,102471.00
2023-04-16T17:44:38.561Z,102469.25
2023-04-16T17:46:40.031Z,102481.63
2023-04-16T17:48:41.555Z,102466.69
2023-04-16T17:50:43.013Z,102470.22
2023-04-16T17:52:44.604Z,102471.13
2023-04-16T17:54:46.146Z,102474.69
2023-04-16T17:56:47.615Z,102478.25
2023-04-16T17:58:49.063Z,102474.75
2023-04-16T18:00:50.651Z,102471.25
2023-04-16T18:02:52.755Z,102478.31
2023-04-16T18:04:54.455Z,102480.13
2023-04-16T18:06:56.140Z,102480.16
2023-04-16T18:08:57.697Z,102485.47
2023-04-16T18:10:59.245Z,102484.59
2023-04-16T18:13:00.720Z,102485.50
2023-04-16T18:15:02.227Z,102490.81
2023-04-16T18:17:06.348Z,102492.56
2023-04-16T18:19:08.299Z,102498.75
2023-04-16T18:21:10.146Z,102492.63
2023-04-16T18:23:11.643Z,102498.81
2023-04-16T18:25:13.159Z,102510.31
2023-04-16T18:27:14.653Z,102507.69
2023-04-16T18:29:17.723Z,102511.22
2023-04-16T18:31:21.436Z,102512.09
2023-04-16T18:33:48.645Z,102516.53
2023-04-16T18:35:44.519Z,102517.47
2023-04-16T18:37:46.764Z,102513.94
2023-04-16T18:39:48.261Z,102514.81
2023-04-16T18:41:49.847Z,102516.59
2023-04-16T18:43:51.751Z,102519.25
2023-04-16T18:45:53.288Z,102526.31
2023-04-16T18:47:58.446Z,102526.34
2023-04-16T18:50:00.041Z,102526.34
2023-04-16T18:52:01.856Z,102530.78
2023-04-16T18:54:03.379Z,102529.00
2023-04-16T18:56:05.318Z,102535.16
2023-04-16T18:58:06.940Z,102538.72
2023-04-16T19:00:12.809Z,102537.84
2023-04-16T19:02:14.466Z,102547.56
2023-04-16T19:04:16.533Z,102547.56
2023-04-16T19:06:18.127Z,102549.34
2023-04-16T19:08:20.022Z,102560.81
2023-04-16T19:10:21.560Z,102549.38
2023-04-16T19:12:23.270Z,102549.38
2023-04-16T19:14:24.736Z,102552.03
2023-04-16T19:16:26.279Z,102553.81
2023-04-16T19:18:28.058Z,102556.44
2023-04-16T19:20:29.667Z,102553.81
2023-04-16T19:22:31.353Z,102559.13
2023-04-16T19:24:34.230Z,102551.19
2023-04-16T19:26:37.284Z,102553.84
2023-04-16T19:28:39.052Z,102559.16
2023-04-16T19:30:40.714Z,102560.03
2023-04-16T19:32:42.304Z,102557.38
2023-04-16T19:34:43.787Z,102563.56
2023-04-16T19:36:45.932Z,102567.97
2023-04-16T19:38:47.426Z,102563.56
2023-04-16T19:40:48.986Z,102568.88
2023-04-16T19:42:50.598Z,102573.28
2023-04-16T19:44:52.146Z,102570.63
2023-04-16T19:46:53.744Z,102575.03
2023-04-16T19:48:56.796Z,102568.88
2023-04-16T19:51:03.009Z,102580.34
2023-04-16T19:53:04.494Z,102574.19
2023-04-16T19:55:07.036Z,102571.56
2023-04-16T19:57:08.825Z,102577.72
2023-04-16T19:59:10.536Z,102565.41
2023-04-16T20:01:12.237Z,102571.56
2023-04-16T20:03:13.835Z,102569.81
2023-04-16T20:05:15.612Z,102572.47
2023-04-16T20:07:17.629Z,102568.06
2023-04-16T20:09:20.183Z,102564.53
2023-04-16T20:11:21.688Z,102571.59
2023-04-16T20:13:23.325Z,102573.38
2023-04-16T20:15:24.820Z,102577.78
2023-04-16T20:17:26.599Z,102571.59
2023-04-16T20:19:34.068Z,102577.78
2023-04-16T20:21:35.848Z,102583.03
2023-04-16T20:23:37.350Z,102580.41
2023-04-16T20:25:46.149Z,102577.75
2023-04-16T20:27:47.635Z,102585.69
2023-04-16T20:29:49.158Z,102584.81
2023-04-16T20:31:50.636Z,102585.69
2023-04-16T20:33:52.626Z,102587.44
2023-04-16T20:35:54.476Z,102590.09
2023-04-16T20:37:55.968Z,102591.84
2023-04-16T20:39:57.392Z,102595.38
2023-04-16T20:41:58.871Z,102592.75
2023-04-16T20:44:05.322Z,102588.34
2023-04-16T20:46:12.757Z,102589.22
2023-04-16T20:48:14.468Z,102594.50
2023-04-16T20:50:16.097Z,102590.97
2023-04-16T20:52:17.593Z,102593.63
2023-04-16T20:54:19.096Z,102595.38
2023-04-16T20:56:20.892Z,102592.75
2023-04-16T20:58:22.737Z,102598.03
2023-04-16T21:00:24.392Z,102597.16
2023-04-16T21:02:28.349Z,102597.16
2023-04-16T21:04:30.292Z,102603.31
2023-04-16T21:06:32.959Z,102596.28
2023-04-16T21:08:34.634Z,102602.44
2023-04-16T21:10:36.101Z,102605.06
2023-04-16T21:12:37.690Z,102605.06
2023-04-16T21:14:39.193Z,102603.31
2023-04-16T21:16:40.797Z,102603.31
2023-04-16T21:18:42.331Z,102605.97
2023-04-16T21:20:44.380Z,102607.72
2023-04-16T21:22:46.045Z,102611.25
2023-04-16T21:24:47.499Z,102612.13
2023-04-16T21:26:48.951Z,102609.47
2023-04-16T21:28:50.411Z,102610.34
2023-04-16T21:30:52.414Z,102608.59
2023-04-16T21:32:53.969Z,102612.09
2023-04-16T21:34:55.803Z,102615.59
2023-04-16T21:36:57.330Z,102611.19
2023-04-16T21:38:58.951Z,102607.69
2023-04-16T21:41:01.413Z,102611.19
2023-04-16T21:43:03.237Z,102610.31
2023-04-16T21:45:05.440Z,102616.47
2023-04-16T21:47:06.938Z,102613.84
2023-04-16T21:49:08.494Z,102617.34
2023-04-16T21:51:10.068Z,102618.22
2023-04-16T21:53:11.902Z,102614.72
2023-04-16T21:55:14.408Z,102618.22
2023-04-16T21:57:16.079Z,102627.03
2023-04-16T21:59:17.558Z,102622.59
2023-04-16T22:01:19.148Z,102620.81
2023-04-16T22:03:26.214Z,102619.06
2023-04-16T22:05:28.945Z,102624.34
2023-04-16T22:07:30.563Z,102619.94
2023-04-16T22:09:32.550Z,102619.06
2023-04-16T22:11:33.980Z,102617.28
2023-04-16T22:13:36.646Z,102620.81
2023-04-16T22:15:38.336Z,102620.81
2023-04-16T22:17:40.542Z,102619.06
2023-04-16T22:19:42.408Z,102619.94
2023-04-16T22:21:44.180Z,102621.69
2023-04-16T22:23:46.152Z,102615.53
2023-04-16T22:25:47.690Z,102622.56
2023-04-16T22:27:49.205Z,102614.63
2023-04-16T22:29:50.813Z,102619.91
2023-04-16T22:31:52.534Z,102619.88
2023-04-16T22:33:54.031Z,102622.50
2023-04-16T22:35:55.594Z,102619.84
2023-04-16T22:37:57.107Z,102618.09
2023-04-16T22:39:58.690Z,102622.50
2023-04-16T22:42:00.680Z,102624.25
2023-04-16T22:44:02.440Z,102619.84
2023-04-16T22:46:06.300Z,102621.59
2023-04-16T22:48:07.984Z,102620.72
2023-04-16T22:50:10.790Z,102619.81
2023-04-16T22:52:12.268Z,102621.56
2023-04-16T22:54:14.079Z,102623.31
2023-04-16T22:56:15.628Z,102623.31
2023-04-16T22:58:17.522Z,102622.44
2023-04-16T23:00:19.393Z,102625.94
2023-04-16T23:02:21.467Z,102625.06
2023-04-16T23:04:23.112Z,102626.81
2023-04-16T23:06:24.708Z,102627.66
2023-04-16T23:08:26.183Z,102629.44
2023-04-16T23:10:27.751Z,102626.78
2023-04-16T23:12:29.211Z,102631.16
2023-04-16T23:14:31.522Z,102629.34
2023-04-16T23:16:33.008Z,102627.59